createdAt,value
2022-08-17T00:02:26.399Z,22.66
2022-08-17T00:04:54.139Z,22.64
2022-08-17T00:07:23.391Z,22.39
2022-08-17T00:09:50.808Z,22.26
2022-08-17T00:12:41.015Z,22.24
2022-08-17T00:15:10.491Z,22.20
2022-08-17T00:17:39.448Z,22.14
2022-08-17T00:20:07.743Z,22.11
2022-08-17T00:22:36.946Z,21.97
2022-08-17T00:25:07.855Z,21.97
2022-08-17T00:27:35.908Z,21.85
2022-08-17T00:30:03.401Z,21.84
2022-08-17T00:33:12.432Z,21.75
2022-08-17T00:35:27.678Z,21.67
2022-08-17T00:37:56.405Z,21.70
2022-08-17T00:40:24.773Z,21.69
2022-08-17T00:42:53.298Z,21.65
2022-08-17T00:45:23.267Z,21.57
2022-08-17T00:47:50.686Z,21.56
2022-08-17T00:50:20.033Z,21.67
2022-08-17T00:52:53.379Z,21.53
2022-08-17T00:55:23.837Z,21.51
2022-08-17T00:57:55.596Z,21.52
2022-08-17T01:00:26.841Z,21.41
2022-08-17T01:02:58.759Z,21.34
2022-08-17T01:05:30.449Z,21.33
2022-08-17T01:07:59.764Z,21.32
2022-08-17T01:11:00.628Z,21.15
2022-08-17T01:13:24.757Z,21.11
2022-08-17T01:15:57.763Z,21.08
2022-08-17T01:18:26.487Z,21.03
2022-08-17T01:20:57.529Z,21.00
2022-08-17T01:23:27.475Z,21.10
2022-08-17T01:25:58.461Z,21.01
2022-08-17T01:28:53.178Z,20.94
2022-08-17T01:31:16.848Z,20.82
2022-08-17T01:33:44.487Z,20.76
2022-08-17T01:36:11.944Z,20.68
2022-08-17T01:38:40.929Z,20.66
2022-08-17T01:41:12.756Z,20.69
2022-08-17T01:43:45.236Z,20.62
2022-08-17T01:46:16.956Z,20.55
2022-08-17T01:48:47.298Z,20.43
2022-08-17T01:51:16.463Z,20.37
2022-08-17T01:53:49.763Z,20.29
2022-08-17T01:56:19.984Z,20.21
2022-08-17T01:58:47.528Z,20.17
2022-08-17T02:01:18.725Z,20.21
2022-08-17T02:03:53.204Z,20.21
2022-08-17T02:06:28.226Z,20.21
2022-08-17T02:09:02.290Z,20.20
2022-08-17T02:11:32.827Z,20.17
2022-08-17T02:14:03.190Z,20.12
2022-08-17T02:16:36.925Z,20.00
2022-08-17T02:19:07.625Z,19.97
2022-08-17T02:21:35.892Z,19.97
2022-08-17T02:24:07.569Z,19.93
2022-08-17T02:26:35.923Z,19.95
2022-08-17T02:29:03.968Z,19.96
2022-08-17T02:31:31.943Z,19.93
2022-08-17T02:34:04.005Z,19.73
2022-08-17T02:36:33.656Z,19.66
2022-08-17T02:39:01.660Z,19.66
2022-08-17T02:41:30.478Z,19.69
2022-08-17T02:43:58.559Z,19.68
2022-08-17T02:46:26.216Z,19.53
2022-08-17T02:48:53.605Z,19.53
2022-08-17T02:51:21.117Z,19.52
2022-08-17T02:53:48.575Z,19.50
2022-08-17T02:56:16.005Z,19.53
2022-08-17T02:58:44.777Z,19.49
2022-08-17T03:01:12.669Z,19.39
2022-08-17T03:03:40.882Z,19.30
2022-08-17T03:06:09.288Z,19.26
2022-08-17T03:08:38.133Z,19.33
2022-08-17T03:11:05.607Z,19.36
2022-08-17T03:13:33.046Z,19.34
2022-08-17T03:16:01.795Z,19.34
2022-08-17T03:18:29.212Z,19.21
2022-08-17T03:20:59.050Z,19.11
2022-08-17T03:23:28.063Z,19.15
2022-08-17T03:25:57.430Z,19.10
2022-08-17T03:28:25.888Z,19.09
2022-08-17T03:30:53.722Z,19.16
2022-08-17T03:33:22.945Z,19.15
2022-08-17T03:35:50.845Z,19.07
2022-08-17T03:38:18.937Z,19.10
2022-08-17T03:40:57.712Z,19.11
2022-08-17T03:43:29.217Z,19.13
2022-08-17T03:46:34.435Z,19.06
2022-08-17T03:49:20.500Z,19.05
2022-08-17T03:52:05.572Z,19.04
2022-08-17T03:54:50.259Z,19.00
2022-08-17T03:57:19.082Z,19.00
2022-08-17T03:59:46.530Z,19.09
2022-08-17T04:02:19.447Z,19.11
2022-08-17T04:04:50.698Z,19.08
2022-08-17T04:07:18.320Z,19.25
2022-08-17T04:09:45.811Z,19.07
2022-08-17T04:12:15.745Z,19.07
2022-08-17T04:14:52.233Z,18.98
2022-08-17T04:17:22.438Z,19.06
2022-08-17T04:19:51.197Z,19.08
2022-08-17T04:22:33.155Z,19.14
2022-08-17T04:25:04.183Z,19.03
2022-08-17T04:27:31.928Z,19.08
2022-08-17T04:29:59.493Z,19.14
2022-08-17T04:33:03.523Z,19.20
2022-08-17T04:35:20.790Z,19.27
2022-08-17T04:37:48.348Z,19.35
2022-08-17T04:40:33.713Z,19.46
2022-08-17T04:43:02.746Z,19.55
2022-08-17T04:45:32.040Z,19.64
2022-08-17T04:48:00.175Z,19.78
2022-08-17T04:50:29.043Z,19.89
2022-08-17T04:52:57.236Z,19.95
2022-08-17T04:55:24.846Z,20.19
2022-08-17T04:57:52.270Z,20.27
2022-08-17T05:00:19.874Z,20.33
2022-08-17T05:02:50.096Z,20.43
2022-08-17T05:05:20.056Z,20.43
2022-08-17T05:07:52.058Z,20.44
2022-08-17T05:10:20.065Z,20.42
2022-08-17T05:12:48.850Z,20.41
2022-08-17T05:15:16.655Z,20.44
2022-08-17T05:17:44.642Z,20.45
2022-08-17T05:20:12.373Z,20.71
2022-08-17T05:22:51.043Z,20.86
2022-08-17T05:25:25.583Z,20.91
2022-08-17T05:27:53.397Z,21.06
2022-08-17T05:30:21.496Z,21.25
2022-08-17T05:32:53.999Z,21.32
2022-08-17T05:35:22.227Z,21.33
2022-08-17T05:37:52.272Z,21.58
2022-08-17T05:40:21.685Z,21.65
2022-08-17T05:42:49.809Z,21.61
2022-08-17T05:45:32.687Z,21.71
2022-08-17T05:48:08.483Z,21.77
2022-08-17T05:50:48.481Z,22.09
2022-08-17T05:53:24.958Z,22.16
2022-08-17T05:56:03.860Z,22.28
2022-08-17T06:01:36.396Z,22.59
2022-08-17T06:04:13.668Z,22.67
2022-08-17T06:06:46.289Z,22.77
2022-08-17T06:09:32.956Z,22.83
2022-08-17T06:12:19.023Z,22.99
2022-08-17T06:15:01.779Z,23.11
2022-08-17T06:17:31.065Z,23.05
2022-08-17T06:20:01.275Z,23.23
2022-08-17T06:22:34.190Z,23.28
2022-08-17T06:25:10.185Z,23.42
2022-08-17T06:27:42.198Z,23.29
2022-08-17T06:30:14.978Z,23.45
2022-08-17T06:32:45.394Z,23.55
2022-08-17T06:35:18.357Z,23.35
2022-08-17T06:38:04.304Z,23.55
2022-08-17T06:40:52.204Z,23.63
2022-08-17T06:43:36.881Z,23.75
2022-08-17T06:46:11.381Z,23.90
2022-08-17T06:48:46.727Z,24.12
2022-08-17T06:51:22.366Z,24.33
2022-08-17T06:53:59.468Z,24.38
2022-08-17T06:56:53.372Z,24.50
2022-08-17T06:59:26.113Z,24.36
2022-08-17T07:02:00.303Z,24.49
2022-08-17T07:04:32.226Z,24.65
2022-08-17T07:07:24.123Z,24.83
2022-08-17T07:09:54.215Z,24.99
2022-08-17T07:12:29.593Z,25.07
2022-08-17T07:15:05.477Z,25.15
2022-08-17T07:17:47.314Z,25.31
2022-08-17T07:20:20.425Z,25.62
2022-08-17T07:22:59.762Z,26.05
2022-08-17T07:25:30.523Z,26.05
2022-08-17T07:28:04.232Z,26.28
2022-08-17T07:30:45.890Z,26.77
2022-08-17T07:33:23.363Z,27.11
2022-08-17T07:35:52.099Z,27.24
2022-08-17T07:38:25.240Z,27.41
2022-08-17T07:41:02.407Z,27.28
2022-08-17T07:43:35.067Z,27.18
2022-08-17T07:46:30.120Z,27.10
2022-08-17T07:49:16.741Z,27.14
2022-08-17T07:51:57.036Z,27.01
2022-08-17T07:54:32.809Z,26.92
2022-08-17T07:57:01.944Z,26.78
2022-08-17T07:59:33.609Z,26.94
2022-08-17T08:02:07.981Z,26.93
2022-08-17T08:07:31.942Z,27.38
2022-08-17T08:10:06.990Z,27.63
2022-08-17T08:12:37.034Z,27.75
2022-08-17T08:15:15.287Z,27.78
2022-08-17T08:17:52.439Z,28.02
2022-08-17T08:20:51.660Z,28.27
2022-08-17T08:23:25.547Z,28.55
2022-08-17T08:26:05.019Z,28.87
2022-08-17T08:28:43.341Z,29.13
2022-08-17T08:31:25.139Z,28.76
2022-08-17T08:34:05.307Z,28.45
2022-08-17T08:37:14.526Z,28.90
2022-08-17T08:39:42.609Z,28.75
2022-08-17T08:42:20.605Z,29.29
2022-08-17T08:45:04.085Z,29.51
2022-08-17T08:47:51.670Z,29.61
2022-08-17T08:50:37.365Z,29.78
2022-08-17T08:53:18.821Z,29.69
2022-08-17T08:55:52.734Z,29.93
2022-08-17T08:58:31.706Z,30.19
2022-08-17T09:01:19.100Z,30.68
2022-08-17T09:04:18.184Z,30.78
2022-08-17T09:06:57.842Z,30.70
2022-08-17T09:09:34.785Z,30.83
2022-08-17T09:12:09.317Z,30.82
2022-08-17T09:14:47.112Z,30.69
2022-08-17T09:17:20.123Z,31.12
2022-08-17T09:19:55.303Z,31.41
2022-08-17T09:22:31.613Z,31.16
2022-08-17T09:25:04.719Z,31.03
2022-08-17T09:27:35.399Z,30.66
2022-08-17T09:30:07.859Z,30.51
2022-08-17T09:32:40.951Z,30.79
2022-08-17T09:35:17.298Z,30.83
2022-08-17T09:38:00.361Z,30.62
2022-08-17T09:40:33.030Z,30.69
2022-08-17T09:43:05.434Z,30.61
2022-08-17T09:45:38.569Z,30.83
2022-08-17T09:48:09.213Z,30.99
2022-08-17T09:51:03.893Z,31.16
2022-08-17T09:53:32.353Z,31.64
2022-08-17T09:56:17.383Z,32.08
2022-08-17T09:59:01.096Z,32.07
2022-08-17T10:01:36.830Z,32.38
2022-08-17T10:04:34.401Z,32.11
2022-08-17T10:07:11.499Z,32.11
2022-08-17T10:09:53.063Z,32.59
2022-08-17T10:12:33.203Z,32.42
2022-08-17T10:15:17.345Z,31.91
2022-08-17T10:17:58.430Z,31.90
2022-08-17T10:20:30.390Z,31.71
2022-08-17T10:23:29.568Z,31.80
2022-08-17T10:26:14.454Z,32.21
2022-08-17T10:28:49.023Z,32.74
2022-08-17T10:31:40.062Z,32.33
2022-08-17T10:34:25.342Z,32.36
2022-08-17T10:36:59.962Z,32.82
2022-08-17T10:39:52.383Z,33.22
2022-08-17T10:42:32.400Z,33.54
2022-08-17T10:45:06.739Z,33.64
2022-08-17T10:48:04.731Z,33.96
2022-08-17T10:50:59.050Z,33.55
2022-08-17T10:53:54.351Z,32.47
2022-08-17T10:56:40.210Z,32.38
2022-08-17T10:59:07.709Z,32.86
2022-08-17T11:02:03.444Z,33.25
2022-08-17T11:04:47.722Z,33.61
2022-08-17T11:07:22.258Z,33.73
2022-08-17T11:10:08.130Z,34.01
2022-08-17T11:12:45.326Z,34.04
2022-08-17T11:15:24.741Z,33.86
2022-08-17T11:18:29.903Z,34.05
2022-08-17T11:21:26.943Z,34.00
2022-08-17T11:24:17.768Z,33.72
2022-08-17T11:26:59.904Z,33.50
2022-08-17T11:29:34.610Z,33.32
2022-08-17T11:32:11.465Z,33.36
2022-08-17T11:34:40.567Z,33.59
2022-08-17T11:37:28.531Z,33.28
2022-08-17T11:40:32.876Z,33.13
2022-08-17T11:43:15.335Z,33.68
2022-08-17T11:46:01.186Z,33.22
2022-08-17T11:49:00.977Z,33.63
2022-08-17T11:51:54.763Z,34.22
2022-08-17T11:54:43.094Z,34.15
2022-08-17T11:57:54.011Z,34.26
2022-08-17T12:00:56.619Z,33.97
2022-08-17T12:03:54.260Z,33.83
2022-08-17T12:06:36.019Z,34.13
2022-08-17T12:09:13.008Z,34.39
2022-08-17T12:11:55.461Z,34.33
2022-08-17T12:15:08.478Z,33.79
2022-08-17T12:17:39.279Z,33.72
2022-08-17T12:20:14.973Z,32.83
2022-08-17T12:22:53.337Z,32.75
2022-08-17T12:25:25.698Z,33.26
2022-08-17T12:28:06.339Z,33.73
2022-08-17T12:30:36.291Z,33.98
2022-08-17T12:33:12.224Z,34.11
2022-08-17T12:35:39.792Z,34.05
2022-08-17T12:38:30.389Z,34.20
2022-08-17T12:40:59.099Z,34.07
2022-08-17T12:43:31.015Z,33.88
2022-08-17T12:46:01.103Z,34.18
2022-08-17T12:48:59.562Z,34.38
2022-08-17T12:51:28.971Z,34.67
2022-08-17T12:53:56.562Z,34.49
2022-08-17T12:56:24.014Z,34.42
2022-08-17T12:58:55.468Z,34.65
2022-08-17T13:01:25.034Z,34.66
2022-08-17T13:03:59.644Z,34.62
2022-08-17T13:06:29.980Z,34.69
2022-08-17T13:08:57.382Z,34.79
2022-08-17T13:11:25.870Z,34.29
2022-08-17T13:13:55.994Z,34.51
2022-08-17T13:16:25.415Z,34.56
2022-08-17T13:18:58.335Z,34.42
2022-08-17T13:21:30.258Z,34.40
2022-08-17T13:24:00.360Z,34.53
2022-08-17T13:26:32.500Z,34.57
2022-08-17T13:29:01.124Z,34.62
2022-08-17T13:31:47.463Z,33.95
2022-08-17T13:34:50.238Z,34.04
2022-08-17T13:37:32.638Z,34.19
2022-08-17T13:40:22.667Z,34.34
2022-08-17T13:42:54.009Z,34.29
2022-08-17T13:45:44.734Z,33.93
2022-08-17T13:48:21.292Z,34.25
2022-08-17T13:51:06.229Z,33.85
2022-08-17T13:53:51.125Z,33.96
2022-08-17T13:56:37.621Z,33.97
2022-08-17T13:59:10.953Z,34.25
2022-08-17T14:01:41.101Z,34.38
2022-08-17T14:04:10.664Z,33.85
2022-08-17T14:06:54.211Z,33.60
2022-08-17T14:09:24.308Z,33.56
2022-08-17T14:11:54.021Z,33.83
2022-08-17T14:14:23.099Z,33.89
2022-08-17T14:16:50.961Z,33.88
2022-08-17T14:19:18.602Z,33.85
2022-08-17T14:21:47.630Z,33.79
2022-08-17T14:24:22.998Z,33.82
2022-08-17T14:26:52.002Z,33.59
2022-08-17T14:29:20.047Z,33.56
2022-08-17T14:31:48.523Z,33.64
2022-08-17T14:34:21.315Z,33.78
2022-08-17T14:36:50.393Z,33.70
2022-08-17T14:39:19.084Z,33.87
2022-08-17T14:41:46.695Z,33.84
2022-08-17T14:44:14.382Z,33.80
2022-08-17T14:46:43.080Z,33.24
2022-08-17T14:49:12.326Z,33.23
2022-08-17T14:51:44.414Z,33.18
2022-08-17T14:54:33.610Z,33.24
2022-08-17T14:57:22.764Z,33.31
2022-08-17T14:59:50.716Z,33.41
2022-08-17T15:02:22.770Z,33.43
2022-08-17T15:05:01.782Z,33.50
2022-08-17T15:07:30.808Z,33.51
2022-08-17T15:10:01.485Z,33.55
2022-08-17T15:12:33.318Z,33.48
2022-08-17T15:15:01.639Z,33.42
2022-08-17T15:17:44.281Z,33.50
2022-08-17T15:20:15.133Z,33.60
2022-08-17T15:22:44.270Z,33.65
2022-08-17T15:25:14.460Z,33.57
2022-08-17T15:27:42.172Z,33.38
2022-08-17T15:30:11.659Z,33.34
2022-08-17T15:32:50.671Z,33.09
2022-08-17T15:35:27.773Z,32.80
2022-08-17T15:37:56.082Z,32.60
2022-08-17T15:40:24.994Z,32.65
2022-08-17T15:42:52.648Z,32.67
2022-08-17T15:45:24.467Z,32.59
2022-08-17T15:47:52.213Z,32.47
2022-08-17T15:50:20.033Z,32.40
2022-08-17T15:52:47.576Z,32.44
2022-08-17T15:55:17.203Z,32.45
2022-08-17T15:57:48.422Z,32.62
2022-08-17T16:00:16.275Z,32.55
2022-08-17T16:03:20.351Z,32.63
2022-08-17T16:05:31.673Z,32.74
2022-08-17T16:07:59.554Z,32.76
2022-08-17T16:10:35.679Z,32.69
2022-08-17T16:13:05.188Z,32.57
2022-08-17T16:15:44.644Z,32.54
2022-08-17T16:18:12.774Z,32.43
2022-08-17T16:20:40.207Z,32.28
2022-08-17T16:23:07.658Z,32.17
2022-08-17T16:25:52.453Z,32.11
2022-08-17T16:28:23.348Z,31.97
2022-08-17T16:31:03.745Z,31.91
2022-08-17T16:33:31.709Z,31.95
2022-08-17T16:35:59.599Z,31.92
2022-08-17T16:38:27.052Z,31.83
2022-08-17T16:40:54.460Z,31.74
2022-08-17T16:43:23.325Z,31.61
2022-08-17T16:45:52.186Z,31.42
2022-08-17T16:48:19.762Z,31.19
2022-08-17T16:51:02.026Z,31.03
2022-08-17T16:53:31.102Z,31.06
2022-08-17T16:55:58.496Z,30.87
2022-08-17T16:58:27.201Z,30.72
2022-08-17T17:00:59.466Z,30.63
2022-08-17T17:03:29.939Z,30.50
2022-08-17T17:06:07.926Z,30.40
2022-08-17T17:08:43.663Z,30.39
2022-08-17T17:11:14.720Z,30.30
2022-08-17T17:13:48.283Z,30.24
2022-08-17T17:16:21.619Z,29.98
2022-08-17T17:19:01.568Z,29.83
2022-08-17T17:21:35.682Z,29.72
2022-08-17T17:24:07.948Z,29.51
2022-08-17T17:26:52.341Z,29.33
2022-08-17T17:29:47.134Z,29.18
2022-08-17T17:32:21.661Z,29.08
2022-08-17T17:34:52.467Z,28.93
2022-08-17T17:37:26.325Z,28.72
2022-08-17T17:39:55.709Z,28.60
2022-08-17T17:42:28.190Z,28.56
2022-08-17T17:45:03.378Z,28.47
2022-08-17T17:47:32.639Z,28.35
2022-08-17T17:50:01.309Z,28.25
2022-08-17T17:52:36.846Z,28.09
2022-08-17T17:55:13.044Z,28.14
2022-08-17T17:57:55.846Z,28.04
2022-08-17T18:00:31.948Z,27.81
2022-08-17T18:03:17.252Z,27.59
2022-08-17T18:06:10.331Z,27.55
2022-08-17T18:08:51.600Z,27.52
2022-08-17T18:11:35.284Z,27.47
2022-08-17T18:14:23.528Z,27.40
2022-08-17T18:16:56.433Z,27.31
2022-08-17T18:19:26.040Z,27.22
2022-08-17T18:21:57.526Z,27.04
2022-08-17T18:24:33.544Z,26.89
2022-08-17T18:27:02.963Z,26.83
2022-08-17T18:29:45.064Z,26.76
2022-08-17T18:32:31.116Z,26.65
2022-08-17T18:35:01.491Z,26.62
2022-08-17T18:37:39.458Z,26.71
2022-08-17T18:40:26.480Z,26.53
2022-08-17T18:43:02.809Z,26.36
2022-08-17T18:45:39.146Z,26.30
2022-08-17T18:48:23.548Z,26.27
2022-08-17T18:50:53.790Z,26.28
2022-08-17T18:53:37.406Z,26.13
2022-08-17T18:56:30.984Z,25.98
2022-08-17T18:59:13.975Z,25.90
2022-08-17T19:01:59.858Z,26.01
2022-08-17T19:04:36.548Z,25.81
2022-08-17T19:07:10.716Z,25.78
2022-08-17T19:09:43.631Z,25.63
2022-08-17T19:12:26.329Z,25.68
2022-08-17T19:14:56.871Z,25.53
2022-08-17T19:17:30.294Z,25.54
2022-08-17T19:20:03.624Z,25.50
2022-08-17T19:22:44.683Z,25.36
2022-08-17T19:25:15.289Z,25.32
2022-08-17T19:27:51.426Z,25.16
2022-08-17T19:30:25.176Z,25.04
2022-08-17T19:32:53.001Z,24.97
2022-08-17T19:35:25.762Z,24.93
2022-08-17T19:38:03.646Z,24.94
2022-08-17T19:40:52.645Z,24.99
2022-08-17T19:43:28.311Z,24.86
2022-08-17T19:46:06.053Z,24.88
2022-08-17T19:48:46.477Z,24.84
2022-08-17T19:51:24.318Z,24.85
2022-08-17T19:54:06.594Z,24.72
2022-08-17T19:56:43.236Z,24.70
2022-08-17T19:59:19.360Z,24.26
2022-08-17T20:01:50.956Z,24.39
2022-08-17T20:04:32.894Z,24.38
2022-08-17T20:07:07.406Z,24.15
2022-08-17T20:09:39.309Z,24.24
2022-08-17T20:12:11.140Z,24.44
2022-08-17T20:14:53.663Z,24.37
2022-08-17T20:17:25.420Z,24.31
2022-08-17T20:20:02.509Z,24.35
2022-08-17T20:22:51.880Z,24.38
2022-08-17T20:25:30.144Z,24.23
2022-08-17T20:28:06.181Z,24.20
2022-08-17T20:30:38.382Z,24.23
2022-08-17T20:33:08.935Z,24.17
2022-08-17T20:35:41.361Z,24.08
2022-08-17T20:38:12.723Z,24.00
2022-08-17T20:41:02.464Z,24.04
2022-08-17T20:43:46.627Z,23.88
2022-08-17T20:46:24.648Z,23.84
2022-08-17T20:48:55.756Z,23.77
2022-08-17T20:51:31.393Z,23.80
2022-08-17T20:54:26.347Z,23.78
2022-08-17T20:56:57.687Z,23.75
2022-08-17T20:59:56.869Z,23.69
2022-08-17T21:02:26.786Z,23.63
2022-08-17T21:05:35.436Z,23.47
2022-08-17T21:08:14.732Z,23.44
2022-08-17T21:10:47.007Z,23.52
2022-08-17T21:13:37.875Z,23.62
2022-08-17T21:16:27.065Z,23.63
2022-08-17T21:19:08.494Z,23.47
2022-08-17T21:21:46.659Z,23.47
2022-08-17T21:24:27.237Z,23.40
2022-08-17T21:27:08.104Z,23.46
2022-08-17T21:29:50.740Z,23.35
2022-08-17T21:32:28.919Z,23.25
2022-08-17T21:35:23.638Z,23.18
2022-08-17T21:37:53.178Z,23.27
2022-08-17T21:40:26.876Z,23.29
2022-08-17T21:42:59.605Z,23.34
2022-08-17T21:45:30.502Z,23.29
2022-08-17T21:48:13.851Z,23.36
2022-08-17T21:50:43.691Z,23.94
2022-08-17T21:53:15.820Z,23.71
2022-08-17T21:55:43.311Z,23.52
2022-08-17T21:58:29.030Z,23.35
2022-08-17T22:01:26.018Z,23.31
2022-08-17T22:04:00.703Z,23.06
2022-08-17T22:06:30.897Z,22.91
2022-08-17T22:09:05.289Z,22.94
2022-08-17T22:11:33.104Z,22.87
2022-08-17T22:14:05.521Z,22.65
2022-08-17T22:16:33.626Z,22.76
2022-08-17T22:19:01.223Z,22.77
2022-08-17T22:21:28.737Z,22.78
2022-08-17T22:24:04.284Z,22.68
2022-08-17T22:27:00.963Z,22.65
2022-08-17T22:30:00.183Z,22.53
2022-08-17T22:32:33.153Z,22.57
2022-08-17T22:35:20.596Z,22.47
2022-08-17T22:37:47.989Z,22.43
2022-08-17T22:40:26.422Z,22.49
2022-08-17T22:42:53.873Z,22.52
2022-08-17T22:45:24.220Z,22.50
2022-08-17T22:47:55.955Z,22.62
2022-08-17T22:50:25.930Z,22.62
2022-08-17T22:53:17.600Z,22.72
2022-08-17T22:56:10.003Z,22.65
2022-08-17T22:59:01.372Z,22.52
2022-08-17T23:01:32.466Z,22.54
2022-08-17T23:04:02.163Z,22.70
2022-08-17T23:06:30.376Z,22.67
2022-08-17T23:08:58.034Z,22.56
2022-08-17T23:11:42.846Z,22.47
2022-08-17T23:14:16.069Z,22.24
2022-08-17T23:16:44.904Z,22.15
2022-08-17T23:19:13.898Z,22.13
2022-08-17T23:21:41.368Z,22.09
2022-08-17T23:24:09.717Z,22.03
2022-08-17T23:26:39.240Z,21.89
2022-08-17T23:29:06.878Z,21.83
2022-08-17T23:31:35.970Z,21.80
2022-08-17T23:34:09.004Z,21.73
2022-08-17T23:36:37.238Z,21.70
2022-08-17T23:39:04.769Z,21.52
2022-08-17T23:41:39.856Z,21.41
2022-08-17T23:44:08.144Z,21.49
2022-08-17T23:46:35.739Z,21.46
2022-08-17T23:49:03.274Z,21.44
2022-08-17T23:51:36.536Z,21.50
2022-08-17T23:54:09.265Z,21.30
2022-08-17T23:56:41.840Z,21.21
2022-08-17T23:59:09.371Z,21.27
